x

South Santa Rosa Is. Ca (46069) Wave Buoy

7:50 - Sun 30th Aug 2015 All times are PDT. -7 hours from GMT.

  • Sig Wave height 7.5ft
  • Peak Period 6s
  • Average Period 5s
  • Wind
    25mph, 31mph gusts
  • Sea Temp 64°f
  • Luft Temp 65°f
  • Sea Pressure 1012.7mb
  • South Santa Rosa Is. Ca
  • South Santa Rosa Is. Ca

More Historic Weather Station data

Upgrade to MSW Pro to gain access to the past 30 days of data for over 8000 Wavebouys and Weather Stations around the globe.

Join Pro

Comparision Forecast

View Surf forecast
   
So 08/30 7:50 7.5ft 6s 5s 25 31 mph 1012.7mb 64f 65f
6:50 7ft 7s 5s 27 34 mph 1012.2mb 65f 65f
5:50 6ft 7s 5s 27 31 mph 1011.7mb 65f 65f
4:50 6ft 6s 5s 25 29 mph 1011.8mb 65f 65f
3:50 6ft 6s 5s 25 29 mph 1011.8mb 65f 65f
2:50 6ft 6s 5s 25 31 mph 1011.7mb 65f 66f
1:50 6ft 14s 6s 25 29 mph 1011.8mb 65f 66f
12:50 6ft 14s 5s 25 27 mph 1011.6mb 65f 66f
Sa 08/29 11:50 5ft 14s 5s 22 27 mph 1011.5mb 64f 65f
10:50 5.5ft 6s 5s 22 27 mph 1011.6mb 65f 65f
9:50 6ft 6s 5s 25 31 mph 1011.6mb 65f 66f
8:50 6ft 6s 5s 27 31 mph 1011.1mb 65f 66f
7:50 5.5ft 6s 5s 22 25 mph 1011mb 65f 66f
6:50 5.5ft 5s 5s 22 25 mph 1011.1mb 65f 67f
5:50 5.5ft 6s 5s 22 27 mph 1011.3mb 65f 67f
4:50 6ft 6s 5s 22 27 mph 1011.5mb 64f 67f
3:50 6ft 14s 6s 22 27 mph 1011.7mb 65f 67f
2:50 5.5ft 5s 5s 20 25 mph 1012.2mb 65f 66f
1:50 5ft 15s 5s 18 20 mph 1012.5mb 65f 66f
12:50 5ft 14s 5s 20 25 mph 1012.6mb 65f 66f
11:50 5.5ft 14s 5s 20 22 mph 1012.9mb 65f 65f
10:50 6ft 6s 5s 22 27 mph 1012.7mb 65f 64f
9:50 6ft 5s 5s 18 22 mph 1012.7mb 64f 64f
8:50 5.5ft 6s 5s 22 25 mph 1012.1mb 64f 64f
7:50 6ft 14s 5s 20 25 mph 1011.7mb 64f 65f
6:50 6ft 15s 5s 25 29 mph 1010.8mb 64f 64f
5:50 5.5ft 14s 5s 22 27 mph 1010.4mb 65f 65f
4:50 5ft 15s 5s 22 27 mph 1010.4mb 65f 65f
3:50 6ft 15s 6s 22 27 mph 1010.5mb 65f 65f
2:50 5.5ft 15s 5s 20 27 mph 1010.3mb 65f 65f
1:50 5ft 6s 5s 20 25 mph 1010.4mb 66f 65f
12:50 4.5ft 15s 5s 22 25 mph 1010.7mb 67f 65f
Fr 08/28 11:50 5.5ft 15s 5s 22 27 mph 1010.7mb 67f 65f
10:50 4.5ft 15s 4s 22 25 mph 1010.5mb 67f 65f
9:50 5ft 15s 5s 25 29 mph 1010.3mb 67f 65f
8:50 5ft 15s 5s 22 25 mph 1010.4mb 67f 65f
7:50 4.5ft 15s 5s 22 25 mph 1009.9mb 67f 65f
6:50 5ft 15s 5s 18 22 mph 1009.5mb 67f 66f
5:50 5ft 15s 6s 18 20 mph 1009.6mb 67f 68f
4:50 4.5ft 15s 6s 18 22 mph 1009.6mb 68f 68f
3:50 4.5ft 15s 6s 16 18 mph 1010mb 68f 68f
2:50 4.5ft 15s 6s 11 13 mph 1010.9mb 68f 68f
1:50 4ft 15s 8s 13 16 mph 1010.9mb 69f 69f
12:50 3.5ft 15s 7s 7
mph
1011.3mb 69f 69f
11:50 3.5ft 15s 7s 4 7 mph 1011.8mb 69f 69f
10:50 4.5ft 16s 7s 4
mph
1011.8mb 68f 68f
9:50 4ft 15s 6s 4
mph
1011.2mb 67f 67f
8:50 4.5ft 16s 6s 7 9 mph 1011.3mb 67f 67f
7:50 4.5ft 15s 6s 9
mph
1011.3mb 67f 67f
6:50 4.5ft 15s 6s 9 11 mph 1010.7mb 67f 67f
5:50 4.5ft 16s 5s 11 13 mph 1010.6mb 67f 67f
4:50 4.5ft 15s 6s 11 13 mph 1010.2mb 67f 67f
3:50 4.5ft 6s 5s 13 16 mph 1010.3mb 67f 67f
2:50 5ft 6s 5s 16 20 mph 1010.3mb 67f 68f
1:50 4.5ft 7s 5s 18 22 mph 1010.7mb 67f 68f
12:50 5ft 16s 6s 18 22 mph 1011.2mb 68f 69f
Do 08/27 11:50 4.5ft 4s 5s 20 22 mph 1011mb 68f 69f
10:50 4.5ft 10s 4s 20 25 mph 1010.7mb 68f 69f
9:50 4ft 6s 4s 22 25 mph 1010.7mb 68f 69f
8:50 3.5ft 10s 4s 20 22 mph 1010.6mb 68f 69f
7:50 3.5ft 11s 4s 18 20 mph 1010.6mb 68f 68f
6:50 3.5ft 14s 5s 18 20 mph 1010.7mb 68f 68f
5:50 3.5ft 10s 5s 16 20 mph 1011.1mb 68f 68f
4:50 3.5ft 9s 5s 18 20 mph 1011.8mb 69f 68f
3:50 4ft 15s 6s 16 18 mph 1012.4mb 69f 68f
2:50 3.5ft 10s 6s 11 13 mph 1013.1mb 69f 67f
1:50 4ft 10s 6s 9 11 mph 1013.9mb 69f 67f
12:50 4ft 10s 6s 9 11 mph 1014.3mb 69f 67f
11:50 3.5ft 11s 6s 9 11 mph 1014.6mb 68f 67f
10:50 4ft 16s 6s 9 11 mph 1014.7mb 67f 67f
9:50 3.5ft 11s 6s 9 11 mph 1014.5mb 67f 67f
8:50 3.5ft 6s 5s 9 11 mph 1014mb 67f 67f
7:50 3.5ft 14s 6s 11 13 mph 1013.8mb 67f 66f
6:50 4ft 11s 5s 11 13 mph 1013.3mb 67f 66f
5:50 4.5ft 10s 5s 13 16 mph 1013.1mb 67f 65f
4:50 4.5ft 9s 5s 16 18 mph 1012.8mb 67f 66f
3:50 4.5ft 10s 5s 18 20 mph 1012.8mb 67f 66f
2:50 4.5ft 10s 5s 13
mph
1012.9mb 67f 66f
1:50 4ft 5s 5s 16 18 mph 1013mb 67f 67f
12:50 4.5ft 15s 5s 18 20 mph 1012.7mb 67f 67f
Mi 08/26 11:50 3.5ft 5s 5s 18 20 mph 1013mb 67f 66f
10:50 3.5ft 10s 5s 18 20 mph 1013.3mb 67f 67f
9:50 4.5ft 10s 5s 18 22 mph 1013.1mb 67f 66f
8:50 4ft 9s 5s 18 20 mph 1012.7mb 67f 66f
7:50 4ft 11s 5s 18 22 mph 1012.1mb 67f 66f
5:50 4ft 11s 5s 16 18 mph 1012.3mb 67f 66f
4:50 4.5ft 11s 5s 16 18 mph 1012.6mb 67f 65f